createdAt,value
2018-01-22T00:00:36.063Z,10.43
2018-01-22T00:03:03.578Z,10.20
2018-01-22T00:05:31.070Z,10.93
2018-01-22T00:07:58.636Z,10.45
2018-01-22T00:10:26.116Z,9.98
2018-01-22T00:12:53.650Z,9.40
2018-01-22T00:15:21.145Z,10.43
2018-01-22T00:17:49.560Z,10.55
2018-01-22T00:20:17.047Z,9.55
2018-01-22T00:22:44.722Z,8.80
2018-01-22T00:25:12.218Z,9.48
2018-01-22T00:27:39.744Z,9.85
2018-01-22T00:30:07.251Z,10.48
2018-01-22T00:32:34.911Z,9.02
2018-01-22T00:35:02.414Z,10.45
2018-01-22T00:37:29.937Z,9.45
2018-01-22T00:39:57.443Z,9.70
2018-01-22T00:42:24.950Z,10.57
2018-01-22T00:44:52.669Z,10.27
2018-01-22T00:47:20.166Z,10.38
2018-01-22T00:49:47.688Z,10.02
2018-01-22T00:52:15.177Z,9.60
2018-01-22T00:54:42.712Z,9.68
2018-01-22T00:57:10.976Z,9.55
2018-01-22T00:59:39.228Z,8.60
2018-01-22T01:02:06.793Z,9.77
2018-01-22T01:04:34.268Z,9.82
2018-01-22T01:07:01.865Z,10.18
2018-01-22T01:09:29.429Z,9.70
2018-01-22T01:11:57.060Z,10.30
2018-01-22T01:14:24.561Z,9.40
2018-01-22T01:16:52.118Z,9.55
2018-01-22T01:19:19.607Z,8.98
2018-01-22T01:21:47.110Z,9.43
2018-01-22T01:24:15.466Z,9.93
2018-01-22T01:26:43.717Z,8.02
2018-01-22T01:29:11.396Z,9.15
2018-01-22T01:31:39.652Z,8.40
2018-01-22T01:34:07.159Z,8.73
2018-01-22T01:36:34.642Z,9.20
2018-01-22T01:39:02.187Z,8.50
2018-01-22T01:41:29.675Z,8.13
2018-01-22T01:43:57.301Z,8.55
2018-01-22T01:46:24.933Z,8.40
2018-01-22T01:49:04.296Z,8.77
2018-01-22T01:51:31.772Z,8.73
2018-01-22T01:53:59.528Z,9.02
2018-01-22T01:56:27.116Z,7.78
2018-01-22T01:58:54.720Z,8.30
2018-01-22T02:01:22.382Z,8.88
2018-01-22T02:03:50.062Z,8.68
2018-01-22T02:06:17.579Z,8.70
2018-01-22T02:08:45.070Z,9.00
2018-01-22T02:11:12.627Z,9.10
2018-01-22T02:13:40.121Z,8.32
2018-01-22T02:16:07.622Z,9.63
2018-01-22T02:18:35.882Z,9.77
2018-01-22T02:21:03.393Z,9.15
2018-01-22T02:23:30.887Z,9.65
2018-01-22T02:25:58.386Z,8.93
2018-01-22T02:28:25.883Z,10.70
2018-01-22T02:30:53.400Z,10.15
2018-01-22T02:33:20.906Z,10.85
2018-01-22T02:35:48.506Z,11.00
2018-01-22T02:38:16.793Z,10.73
2018-01-22T02:40:44.361Z,11.55
2018-01-22T02:43:11.861Z,12.40
2018-01-22T02:45:39.755Z,12.98
2018-01-22T02:48:07.283Z,13.88
2018-01-22T02:50:34.789Z,14.18
2018-01-22T02:53:02.301Z,15.15
2018-01-22T02:55:29.911Z,12.98
2018-01-22T02:57:58.189Z,14.05
2018-01-22T03:00:25.692Z,14.00
2018-01-22T03:02:53.181Z,14.68
2018-01-22T03:05:20.693Z,15.60
2018-01-22T03:07:48.315Z,15.35
2018-01-22T03:10:15.829Z,15.23
2018-01-22T03:12:43.353Z,15.02
2018-01-22T03:15:10.871Z,17.23
2018-01-22T03:17:38.471Z,15.88
2018-01-22T03:20:06.003Z,16.67
2018-01-22T03:22:33.520Z,16.62
2018-01-22T03:25:01.093Z,15.75
2018-01-22T03:27:28.586Z,17.90
2018-01-22T03:29:56.873Z,17.70
2018-01-22T03:32:24.395Z,17.42
2018-01-22T03:34:52.155Z,19.05
2018-01-22T03:37:19.637Z,19.98
2018-01-22T03:39:47.928Z,19.83
2018-01-22T03:42:15.506Z,19.05
2018-01-22T03:44:43.165Z,19.62
2018-01-22T03:47:10.678Z,19.73
2018-01-22T03:49:38.255Z,19.12
2018-01-22T03:52:05.774Z,19.12
2018-01-22T03:54:33.279Z,17.62
2018-01-22T03:57:01.058Z,19.48
2018-01-22T03:59:28.532Z,19.58
2018-01-22T04:01:56.174Z,19.45
2018-01-22T04:04:23.658Z,18.25
2018-01-22T04:06:51.167Z,19.55
2018-01-22T04:09:18.659Z,18.92
2018-01-22T04:11:46.185Z,17.05
2018-01-22T04:14:13.704Z,19.67
2018-01-22T04:16:41.219Z,18.80
2018-01-22T04:19:08.717Z,19.17
2018-01-22T04:21:36.237Z,16.33
2018-01-22T04:24:03.794Z,18.12
2018-01-22T04:26:31.851Z,16.98
2018-01-22T04:28:59.370Z,16.87
2018-01-22T04:31:26.989Z,18.02
2018-01-22T04:33:54.625Z,17.17
2018-01-22T04:36:22.130Z,16.00
2018-01-22T04:38:49.642Z,18.40
2018-01-22T04:41:17.901Z,18.12
2018-01-22T04:43:45.573Z,17.05
2018-01-22T04:46:13.083Z,16.48
2018-01-22T04:48:40.619Z,16.42
2018-01-22T04:51:08.386Z,16.35
2018-01-22T04:53:35.981Z,16.50
2018-01-22T04:56:03.471Z,14.98
2018-01-22T04:58:30.978Z,15.30
2018-01-22T05:00:58.530Z,15.88
2018-01-22T05:03:26.272Z,15.27
2018-01-22T05:05:53.810Z,14.02
2018-01-22T05:08:21.474Z,14.57
2018-01-22T05:10:48.978Z,13.38
2018-01-22T05:13:16.479Z,15.02
2018-01-22T05:15:44.060Z,13.35
2018-01-22T05:18:11.559Z,14.07
2018-01-22T05:20:39.362Z,14.02
2018-01-22T05:23:07.644Z,13.70
2018-01-22T05:25:35.928Z,15.50
2018-01-22T05:28:03.455Z,13.85
2018-01-22T05:30:30.972Z,14.02
2018-01-22T05:32:58.538Z,16.08
2018-01-22T05:35:26.072Z,15.82
2018-01-22T05:37:53.592Z,15.65
2018-01-22T05:40:21.116Z,14.73
2018-01-22T05:42:48.915Z,13.95
2018-01-22T05:45:16.462Z,13.80
2018-01-22T05:47:43.954Z,13.73
2018-01-22T05:50:11.482Z,13.00
2018-01-22T05:52:38.995Z,13.40
2018-01-22T05:55:06.514Z,14.30
2018-01-22T05:57:34.052Z,15.05
2018-01-22T06:00:01.594Z,15.80
2018-01-22T06:02:29.133Z,15.55
2018-01-22T06:04:56.688Z,15.40
2018-01-22T06:07:24.210Z,15.98
2018-01-22T06:09:51.777Z,16.90
2018-01-22T06:12:19.338Z,16.40
2018-01-22T06:14:46.844Z,15.52
2018-01-22T06:17:14.364Z,15.63
2018-01-22T06:19:42.619Z,13.98
2018-01-22T06:22:10.901Z,14.50
2018-01-22T06:24:38.425Z,15.07
2018-01-22T06:27:06.869Z,14.52
2018-01-22T06:29:34.395Z,14.38
2018-01-22T06:32:01.933Z,13.93
2018-01-22T06:34:29.453Z,12.37
2018-01-22T06:36:56.970Z,13.25
2018-01-22T06:39:24.491Z,13.27
2018-01-22T06:41:51.988Z,14.87
2018-01-22T06:44:19.768Z,13.40
2018-01-22T06:46:48.175Z,13.82
2018-01-22T06:49:16.319Z,12.75
2018-01-22T06:51:43.890Z,13.00
2018-01-22T06:54:11.390Z,12.68
2018-01-22T06:56:38.897Z,13.07
2018-01-22T06:59:07.168Z,13.38
2018-01-22T07:01:34.686Z,14.48
2018-01-22T07:04:02.183Z,12.93
2018-01-22T07:06:29.714Z,13.68
2018-01-22T07:08:57.289Z,12.95
2018-01-22T07:11:24.834Z,12.40
2018-01-22T07:13:52.342Z,13.25
2018-01-22T07:16:20.109Z,12.88
2018-01-22T07:18:47.598Z,13.05
2018-01-22T07:21:15.101Z,13.00
2018-01-22T07:23:42.682Z,12.63
2018-01-22T07:26:10.213Z,11.73
2018-01-22T07:28:37.716Z,10.95
2018-01-22T07:31:05.326Z,10.18
2018-01-22T07:33:32.868Z,10.18
2018-01-22T07:36:00.716Z,10.65
2018-01-22T07:38:28.441Z,8.40
2018-01-22T07:40:55.982Z,8.80
2018-01-22T07:43:23.606Z,8.65
2018-01-22T07:45:52.480Z,7.97
2018-01-22T07:48:20.853Z,7.85
2018-01-22T07:50:48.396Z,7.07
2018-01-22T07:53:15.946Z,6.90
2018-01-22T07:55:43.452Z,6.57
2018-01-22T07:58:10.991Z,5.68
2018-01-22T08:00:38.480Z,4.68
2018-01-22T08:03:06.754Z,4.87
2018-01-22T08:05:34.254Z,4.43
2018-01-22T08:08:01.838Z,4.32
2018-01-22T08:10:29.351Z,4.10
2018-01-22T08:12:57.647Z,4.10
2018-01-22T08:15:25.397Z,4.30
2018-01-22T08:17:52.890Z,4.20
2018-01-22T08:20:20.440Z,3.70
2018-01-22T08:22:47.935Z,3.50
2018-01-22T08:25:15.445Z,3.60
2018-01-22T08:27:42.954Z,3.92
2018-01-22T08:30:10.479Z,3.50
2018-01-22T08:32:37.986Z,3.50
2018-01-22T08:35:05.705Z,3.33
2018-01-22T08:37:33.235Z,3.70
2018-01-22T08:40:01.644Z,3.50
2018-01-22T08:42:29.168Z,3.50
2018-01-22T08:44:56.716Z,3.60
2018-01-22T08:47:25.015Z,3.00
2018-01-22T08:49:52.508Z,3.37
2018-01-22T08:52:20.019Z,4.07
2018-01-22T08:54:47.708Z,4.35
2018-01-22T08:57:15.195Z,4.05
2018-01-22T08:59:43.196Z,4.00
2018-01-22T09:02:10.735Z,3.03
2018-01-22T09:04:38.286Z,3.33
2018-01-22T09:07:06.670Z,3.40
2018-01-22T09:09:34.202Z,3.03
2018-01-22T09:12:01.730Z,3.40
2018-01-22T09:14:30.046Z,3.15
2018-01-22T09:16:58.341Z,4.03
2018-01-22T09:19:25.883Z,3.87
2018-01-22T09:21:53.582Z,5.10
2018-01-22T09:24:21.082Z,4.25
2018-01-22T09:26:48.650Z,4.25
2018-01-22T09:29:16.170Z,3.58
2018-01-22T09:31:43.796Z,3.60
2018-01-22T09:34:11.299Z,3.83
2018-01-22T09:36:38.961Z,3.78
2018-01-22T09:39:06.462Z,3.78
2018-01-22T09:41:34.032Z,3.85
2018-01-22T09:44:01.939Z,3.53
2018-01-22T09:46:29.445Z,3.40
2018-01-22T09:48:56.949Z,3.43
2018-01-22T09:51:24.585Z,3.70
2018-01-22T09:53:52.264Z,3.20
2018-01-22T09:56:19.790Z,3.50
2018-01-22T09:58:48.058Z,3.60
2018-01-22T10:01:16.385Z,3.70
2018-01-22T10:03:43.879Z,3.75
2018-01-22T10:06:11.663Z,3.60
2018-01-22T10:08:39.537Z,4.50
2018-01-22T10:11:07.069Z,4.33
2018-01-22T10:13:34.614Z,4.07
2018-01-22T10:16:02.147Z,5.10
2018-01-22T10:18:29.692Z,4.40
2018-01-22T10:20:57.358Z,5.60
2018-01-22T10:23:24.961Z,4.80
2018-01-22T10:25:52.458Z,5.28
2018-01-22T10:28:20.102Z,4.40
2018-01-22T10:30:47.611Z,4.17
2018-01-22T10:33:15.144Z,4.40
2018-01-22T10:35:42.634Z,4.40
2018-01-22T10:38:10.172Z,4.30
2018-01-22T10:40:37.678Z,4.83
2018-01-22T10:43:05.501Z,4.50
2018-01-22T10:45:33.115Z,5.00
2018-01-22T10:48:01.408Z,4.80
2018-01-22T10:50:29.004Z,4.53
2018-01-22T10:52:56.497Z,4.60
2018-01-22T10:55:24.100Z,4.75
2018-01-22T10:57:51.597Z,4.60
2018-01-22T11:00:19.089Z,4.55
2018-01-22T11:02:47.586Z,4.75
2018-01-22T11:05:15.106Z,3.67
2018-01-22T11:07:43.381Z,4.77
2018-01-22T11:10:11.665Z,3.70
2018-01-22T11:12:39.926Z,4.43
2018-01-22T11:15:07.460Z,4.70
2018-01-22T11:17:34.953Z,4.30
2018-01-22T11:20:02.530Z,4.10
2018-01-22T11:22:30.046Z,3.67
2018-01-22T11:24:57.528Z,4.47
2018-01-22T11:27:25.841Z,4.40
2018-01-22T11:29:53.335Z,3.90
2018-01-22T11:32:21.107Z,4.13
2018-01-22T11:34:48.616Z,4.00
2018-01-22T11:37:16.195Z,3.90
2018-01-22T11:39:43.683Z,4.77
2018-01-22T11:42:11.191Z,5.03
2018-01-22T11:44:38.667Z,3.50
2018-01-22T11:47:06.171Z,5.13
2018-01-22T11:49:33.669Z,5.37
2018-01-22T11:52:01.403Z,5.20
2018-01-22T11:54:28.911Z,5.07
2018-01-22T11:56:56.418Z,5.43
2018-01-22T11:59:24.000Z,5.22
2018-01-22T12:01:51.484Z,5.23
2018-01-22T12:04:19.935Z,5.30
2018-01-22T12:06:47.425Z,5.70
2018-01-22T12:09:14.924Z,6.40
2018-01-22T12:11:42.448Z,6.87
2018-01-22T12:14:13.643Z,6.13
2018-01-22T12:16:44.538Z,6.47
2018-01-22T12:19:12.064Z,6.50
2018-01-22T12:21:39.592Z,5.80
2018-01-22T12:24:07.266Z,7.47
2018-01-22T12:26:35.218Z,7.17
2018-01-22T12:29:02.758Z,7.03
2018-01-22T12:31:30.278Z,6.90
2018-01-22T12:33:58.009Z,7.10
2018-01-22T12:36:25.861Z,6.70
2018-01-22T12:38:53.357Z,7.80
2018-01-22T12:41:20.988Z,6.40
2018-01-22T12:43:49.245Z,7.57
2018-01-22T12:46:16.774Z,6.63
2018-01-22T12:48:44.293Z,6.53
2018-01-22T12:51:11.757Z,7.27
2018-01-22T12:53:39.772Z,7.80
2018-01-22T12:56:08.057Z,7.47
2018-01-22T12:58:35.547Z,6.97
2018-01-22T13:01:03.115Z,6.87
2018-01-22T13:03:30.601Z,7.73
2018-01-22T13:05:58.146Z,7.73
2018-01-22T13:08:25.729Z,8.30
2018-01-22T13:10:53.243Z,7.93
2018-01-22T13:13:21.563Z,7.63
2018-01-22T13:15:49.048Z,7.40
2018-01-22T13:18:16.544Z,7.40
2018-01-22T13:20:44.062Z,7.93
2018-01-22T13:23:11.580Z,8.17
2018-01-22T13:25:39.086Z,8.07
2018-01-22T13:28:06.641Z,7.63
2018-01-22T13:30:34.125Z,8.23
2018-01-22T13:33:03.493Z,6.80
2018-01-22T13:35:31.046Z,7.43
2018-01-22T13:37:58.569Z,9.93
2018-01-22T13:40:31.825Z,11.80
2018-01-22T13:42:59.316Z,10.30
2018-01-22T13:45:26.828Z,9.30
2018-01-22T13:47:54.441Z,9.40
2018-01-22T13:50:21.966Z,10.07
2018-01-22T13:52:49.656Z,10.60
2018-01-22T13:55:17.291Z,9.07
2018-01-22T13:57:45.675Z,10.17
2018-01-22T14:00:13.213Z,10.03
2018-01-22T14:02:40.948Z,9.87
2018-01-22T14:05:08.494Z,10.07
2018-01-22T14:07:36.000Z,9.23
2018-01-22T14:10:03.541Z,8.77
2018-01-22T14:12:31.033Z,8.53
2018-01-22T14:14:58.555Z,8.30
2018-01-22T14:17:26.055Z,6.87
2018-01-22T14:19:53.574Z,5.93
2018-01-22T14:22:21.079Z,5.33
2018-01-22T14:24:48.559Z,4.50
2018-01-22T14:27:16.060Z,4.10
2018-01-22T14:29:44.338Z,3.20
2018-01-22T14:32:11.855Z,2.90
2018-01-22T14:34:39.384Z,2.00
2018-01-22T14:37:06.882Z,1.73
2018-01-22T14:39:34.370Z,1.70
2018-01-22T14:42:01.907Z,1.60
2018-01-22T14:44:29.416Z,1.47
2018-01-22T14:46:56.993Z,1.63
2018-01-22T14:49:24.477Z,1.63
2018-01-22T14:51:51.980Z,1.70
2018-01-22T14:54:19.634Z,1.57
2018-01-22T14:56:47.917Z,3.13
2018-01-22T14:59:15.399Z,2.37
2018-01-22T15:01:42.951Z,1.70
2018-01-22T15:04:10.488Z,1.43
2018-01-22T15:06:38.083Z,1.70
2018-01-22T15:09:05.730Z,1.80
2018-01-22T15:11:33.218Z,2.00
2018-01-22T15:14:00.956Z,1.90
2018-01-22T15:16:28.442Z,2.10
2018-01-22T15:18:56.221Z,2.70
2018-01-22T15:21:23.754Z,2.23
2018-01-22T15:23:52.097Z,2.47
2018-01-22T15:26:19.849Z,3.37
2018-01-22T15:28:47.425Z,2.70
2018-01-22T15:31:15.053Z,2.30
2018-01-22T15:33:42.576Z,2.60
2018-01-22T15:36:10.077Z,2.40
2018-01-22T15:38:37.686Z,2.30
2018-01-22T15:41:05.248Z,2.20
2018-01-22T15:43:33.162Z,2.20
2018-01-22T15:46:00.672Z,1.90
2018-01-22T15:48:28.231Z,2.10
2018-01-22T15:50:55.907Z,2.20
2018-01-22T15:53:23.634Z,2.13
2018-01-22T15:55:51.396Z,2.20
2018-01-22T15:58:18.915Z,2.83
2018-01-22T16:00:46.528Z,5.70
2018-01-22T16:03:14.186Z,4.23
2018-01-22T16:05:41.901Z,3.73
2018-01-22T16:08:09.422Z,4.37
2018-01-22T16:10:37.516Z,4.10
2018-01-22T16:13:05.156Z,3.30
2018-01-22T16:15:32.679Z,4.77
2018-01-22T16:18:00.920Z,5.07
2018-01-22T16:20:28.418Z,6.47
2018-01-22T16:22:55.972Z,6.40
2018-01-22T16:25:23.457Z,4.17
2018-01-22T16:27:50.952Z,3.63
2018-01-22T16:30:19.246Z,4.43
2018-01-22T16:32:46.754Z,4.60
2018-01-22T16:35:14.258Z,4.77
2018-01-22T16:37:41.794Z,5.10
2018-01-22T16:40:09.392Z,5.60
2018-01-22T16:42:38.213Z,6.73
2018-01-22T16:45:05.741Z,6.00
2018-01-22T16:47:39.643Z,6.20
2018-01-22T16:50:07.183Z,5.83
2018-01-22T16:52:34.673Z,4.83
2018-01-22T16:55:02.408Z,4.93
2018-01-22T16:57:29.909Z,4.93
2018-01-22T16:59:57.446Z,5.77
2018-01-22T17:02:24.999Z,5.63
2018-01-22T17:04:52.523Z,5.70
2018-01-22T17:07:20.066Z,6.03
2018-01-22T17:09:47.569Z,6.20
2018-01-22T17:12:15.855Z,6.13
2018-01-22T17:14:44.133Z,7.10
2018-01-22T17:17:11.613Z,7.03
2018-01-22T17:19:39.131Z,5.87
2018-01-22T17:22:07.341Z,5.07
2018-01-22T17:24:35.465Z,5.00
2018-01-22T17:27:03.692Z,5.97
2018-01-22T17:29:33.351Z,4.90
2018-01-22T17:32:00.824Z,4.77
2018-01-22T17:34:29.152Z,4.90
2018-01-22T17:36:56.725Z,4.07
2018-01-22T17:39:24.250Z,4.07
2018-01-22T17:41:51.773Z,5.07
2018-01-22T17:44:20.047Z,4.17
2018-01-22T17:46:48.331Z,4.90
2018-01-22T17:49:17.219Z,4.40
2018-01-22T17:51:45.517Z,4.50
2018-01-22T17:54:13.006Z,4.30
2018-01-22T17:56:41.658Z,4.30
2018-01-22T17:59:09.133Z,4.47
2018-01-22T18:01:36.713Z,5.40
2018-01-22T18:04:04.255Z,6.10
2018-01-22T18:06:31.811Z,6.10
2018-01-22T18:08:59.485Z,6.20
2018-01-22T18:11:26.962Z,7.87
2018-01-22T18:13:54.479Z,8.73
2018-01-22T18:16:21.974Z,7.60
2018-01-22T18:18:49.477Z,9.50
2018-01-22T18:21:17.057Z,9.77
2018-01-22T18:23:44.578Z,10.10
2018-01-22T18:26:12.085Z,8.93
2018-01-22T18:28:39.676Z,12.40
2018-01-22T18:31:07.586Z,11.63
2018-01-22T18:33:35.136Z,11.93
2018-01-22T18:36:02.666Z,12.70
2018-01-22T18:38:30.810Z,11.47
2018-01-22T18:40:59.149Z,13.80
2018-01-22T18:43:26.640Z,12.93
2018-01-22T18:45:54.182Z,10.23
2018-01-22T18:48:21.697Z,10.23
2018-01-22T18:50:49.222Z,10.40
2018-01-22T18:53:16.748Z,9.83
2018-01-22T18:55:44.274Z,8.77
2018-01-22T18:58:11.764Z,9.20
2018-01-22T19:00:39.292Z,7.97
2018-01-22T19:03:06.804Z,8.57
2018-01-22T19:05:34.327Z,8.90
2018-01-22T19:08:01.838Z,10.63
2018-01-22T19:10:29.353Z,10.83
2018-01-22T19:12:56.914Z,11.33
2018-01-22T19:15:24.422Z,11.50
2018-01-22T19:17:51.950Z,11.83
2018-01-22T19:20:19.466Z,9.70
2018-01-22T19:22:47.867Z,11.83
2018-01-22T19:25:15.365Z,13.03
2018-01-22T19:27:42.879Z,14.93
2018-01-22T19:30:10.406Z,16.43
2018-01-22T19:32:37.963Z,15.37
2018-01-22T19:35:05.475Z,15.53
2018-01-22T19:37:32.993Z,15.47
2018-01-22T19:40:00.693Z,13.73
2018-01-22T19:42:28.205Z,14.77
2018-01-22T19:44:56.662Z,15.83
2018-01-22T19:47:24.166Z,17.50
2018-01-22T19:49:51.697Z,17.67
2018-01-22T19:52:20.012Z,17.73
2018-01-22T19:54:48.226Z,19.40
2018-01-22T19:57:15.725Z,20.17
2018-01-22T19:59:44.037Z,19.20
2018-01-22T20:02:11.546Z,18.50
2018-01-22T20:04:39.101Z,17.87
2018-01-22T20:07:06.612Z,18.97
2018-01-22T20:09:34.120Z,19.27
2018-01-22T20:12:01.643Z,19.60
2018-01-22T20:14:29.166Z,18.13
2018-01-22T20:16:56.696Z,18.33
2018-01-22T20:19:24.210Z,18.70
2018-01-22T20:21:51.756Z,24.63
2018-01-22T20:24:19.258Z,20.63
2018-01-22T20:26:48.101Z,17.53
2018-01-22T20:29:15.605Z,21.10
2018-01-22T20:31:43.132Z,17.80
2018-01-22T20:34:10.623Z,18.63
2018-01-22T20:36:38.536Z,18.17
2018-01-22T20:39:06.060Z,18.47
2018-01-22T20:41:33.592Z,18.93
2018-01-22T20:44:01.103Z,19.60
2018-01-22T20:46:28.592Z,19.20
2018-01-22T20:48:56.119Z,18.30
2018-01-22T20:51:23.632Z,17.33
2018-01-22T20:53:51.145Z,21.00
2018-01-22T20:56:18.651Z,20.63
2018-01-22T20:58:46.164Z,20.80
2018-01-22T21:01:13.662Z,21.70
2018-01-22T21:03:41.392Z,17.37
2018-01-22T21:06:09.254Z,21.93
2018-01-22T21:08:36.813Z,20.97
2018-01-22T21:11:04.328Z,20.47
2018-01-22T21:13:32.242Z,21.70
2018-01-22T21:15:59.992Z,21.60
2018-01-22T21:18:27.496Z,22.20
2018-01-22T21:20:54.999Z,20.70
2018-01-22T21:23:22.485Z,22.00
2018-01-22T21:25:50.137Z,21.70
2018-01-22T21:28:18.140Z,24.13
2018-01-22T21:30:45.676Z,23.47
2018-01-22T21:33:13.170Z,22.33
2018-01-22T21:35:40.894Z,21.87
2018-01-22T21:38:09.358Z,21.33
2018-01-22T21:40:36.931Z,22.23
2018-01-22T21:43:04.488Z,20.70
2018-01-22T21:45:32.023Z,25.63
2018-01-22T21:48:00.285Z,22.57
2018-01-22T21:50:27.783Z,21.17
2018-01-22T21:52:55.340Z,20.80
2018-01-22T21:55:22.849Z,23.97
2018-01-22T21:57:50.373Z,22.20
2018-01-22T22:00:17.874Z,22.37
2018-01-22T22:02:45.429Z,23.40
2018-01-22T22:05:13.101Z,26.07
2018-01-22T22:07:41.395Z,24.80
2018-01-22T22:10:08.905Z,24.83
2018-01-22T22:12:36.444Z,22.30
2018-01-22T22:15:03.947Z,18.83
2018-01-22T22:17:32.229Z,19.13
2018-01-22T22:20:00.532Z,19.37
2018-01-22T22:22:28.094Z,19.07
2018-01-22T22:24:55.605Z,20.33
2018-01-22T22:27:23.881Z,21.17
2018-01-22T22:29:51.493Z,20.23
2018-01-22T22:32:18.989Z,20.87
2018-01-22T22:34:46.518Z,21.80
2018-01-22T22:37:14.004Z,22.70
2018-01-22T22:39:41.661Z,22.10
2018-01-22T22:42:09.295Z,21.37
2018-01-22T22:44:36.857Z,21.07
2018-01-22T22:47:04.509Z,20.00
2018-01-22T22:49:32.001Z,20.70
2018-01-22T22:51:59.526Z,21.10
2018-01-22T22:54:27.029Z,21.53
2018-01-22T22:56:54.547Z,21.97
2018-01-22T22:59:22.025Z,23.60
2018-01-22T23:01:49.525Z,23.80
2018-01-22T23:04:17.801Z,26.20
2018-01-22T23:06:46.162Z,24.20
2018-01-22T23:09:13.813Z,23.67
2018-01-22T23:11:41.324Z,24.37
2018-01-22T23:14:08.831Z,25.03
2018-01-22T23:16:36.446Z,23.70
2018-01-22T23:19:04.308Z,23.10
2018-01-22T23:21:31.859Z,22.57
2018-01-22T23:23:59.361Z,22.80
2018-01-22T23:26:27.092Z,23.33
2018-01-22T23:28:54.571Z,22.97
2018-01-22T23:31:22.087Z,24.17
2018-01-22T23:33:49.768Z,24.47
2018-01-22T23:36:17.308Z,23.40
2018-01-22T23:38:44.842Z,23.83
2018-01-22T23:41:12.428Z,22.90
2018-01-22T23:43:39.933Z,25.90
2018-01-22T23:46:07.431Z,25.67
2018-01-22T23:48:36.045Z,24.20
2018-01-22T23:51:03.534Z,28.53
2018-01-22T23:53:31.046Z,26.70
2018-01-22T23:55:58.537Z,27.00
2018-01-22T23:58:26.038Z,26.10
